Norwegian Epic — C6XP7 — position and weather

sailwx.info

Track history (hours):
 
Tides and Currents Weather Stations Pressure Air Temp Water Temp Dewpoint Dewpoint Depression Visibility Wind Speed Wind Dir Waves Ship Positions

Norwegian Epic

Last reported at 2016-Jul-27 09:27 UTC. Time now 2016-Jul-27 09:37 UTC.
Position N 42°06' E 011°47'.

Length 329 m; draft 9.2 m.

Type: Passenger vessel. MMSI: 311018500.

Date/timePositionNaut miles runAvg speedWind from/ knotsBaromVisibWave heightAir tempDewpointWater temp
2016-Jul-27 09:27N 42°06' E 011°47'136 8.9
2016-Jul-26 18:14N 40°39' E 014°05'14 3.7
2016-Jul-26 14:31N 40°50' E 014°16'0 0.0
2016-Jul-26 13:32N 40°50' E 014°16'0 0.0
2016-Jul-26 11:33N 40°50' E 014°16'178 8.5
2016-Jul-25 14:31N 41°11' E 010°21'28217.2
2016-Jul-24 22:09N 41°16' E 004°06'1017.3
2016-Jul-24 21:33N 41°16' E 003°52'1716.9
2016-Jul-24 20:33N 41°16' E 003°30'1716.7
2016-Jul-24 19:33N 41°16' E 003°07'1616.3
2016-Jul-24 18:33N 41°16' E 002°46'1616.1
2016-Jul-24 17:33N 41°16' E 002°24'1211.7
2016-Jul-24 16:33N 41°20' E 002°10'1 1.3
2016-Jul-24 15:27N 41°22' E 002°11'0 0.0
2016-Jul-24 14:22N 41°22' E 002°11'0 0.0
2016-Jul-24 13:23N 41°22' E 002°11'0 0.0
2016-Jul-24 12:11N 41°22' E 002°11'0 0.0
2016-Jul-24 11:24N 41°22' E 002°11'0 0.0
2016-Jul-24 10:31N 41°22' E 002°11'0 0.0
2016-Jul-24 08:26N 41°22' E 002°11'0 0.0
2016-Jul-24 07:15N 41°22' E 002°11'0 0.0
2016-Jul-24 06:30N 41°22' E 002°11'0 0.0
2016-Jul-24 04:29N 41°22' E 002°11'0 0.0
2016-Jul-24 03:23N 41°22' E 002°11'0 0.2
2016-Jul-24 02:33N 41°22' E 002°11'6 6.3
2016-Jul-24 01:33N 41°18' E 002°18'1515.2
2016-Jul-24 00:33N 41°25' E 002°36'1312.9
2016-Jul-23 23:33N 41°31' E 002°51'1312.7
2016-Jul-23 22:33N 41°39' E 003°05'1413.7
2016-Jul-23 21:33N 41°48' E 003°19'11018.3
2016-Jul-23 15:33N 43°06' E 005°02'14 1.2
2016-Jul-23 03:32N 43°18' E 005°13'1111.4
2016-Jul-23 02:33N 43°07' E 005°11'4611.4
2016-Jul-22 22:33N 42°50' E 006°09'1111.3
2016-Jul-22 21:33N 42°46' E 006°23'1111.0
2016-Jul-22 20:33N 42°47' E 006°38'1211.7
2016-Jul-22 19:33N 42°56' E 006°48'1313.1
2016-Jul-22 18:33N 43°07' E 006°59'1312.9
2016-Jul-22 17:33N 43°20' E 006°60'1211.9
2016-Jul-22 16:33N 43°32' E 007°00'1 0.6
2016-Jul-22 15:31N 43°32' E 007°01'1 0.6
2016-Jul-22 14:33N 43°33' E 007°01'1 0.5
2016-Jul-22 13:26N 43°32' E 007°01'0 0.0
2016-Jul-22 12:33N 43°32' E 007°01'1 0.6
2016-Jul-22 11:33N 43°33' E 007°01'1 0.7
2016-Jul-22 10:32N 43°32' E 007°00'0 0.2
2016-Jul-22 09:33N 43°32' E 007°01'0 0.2
2016-Jul-22 08:33N 43°32' E 007°00'0 0.1
2016-Jul-22 07:33N 43°32' E 007°00'0 0.0
2016-Jul-22 05:33N 43°32' E 007°01'5 5.3
2016-Jul-22 04:34N 43°28' E 007°05'1211.9
2016-Jul-22 03:34N 43°28' E 007°22'1212.0
2016-Jul-22 02:34N 43°29' E 007°38'1211.9
2016-Jul-22 01:34N 43°29' E 007°54'1111.1
2016-Jul-22 00:33N 43°29' E 008°10'1312.6
2016-Jul-21 23:34N 43°30' E 008°27'1312.9
2016-Jul-21 22:34N 43°30' E 008°45'1313.1
2016-Jul-21 21:34N 43°30' E 009°03'1313.3
2016-Jul-21 20:34N 43°31' E 009°21'1312.8
2016-Jul-21 19:34N 43°31' E 009°39'1212.3
2016-Jul-21 18:34N 43°31' E 009°56'1413.9
2016-Jul-21 17:33N 43°32' E 010°15'2 2.2
2016-Jul-21 16:31N 43°33' E 010°18'0 0.0
2016-Jul-21 15:32N 43°33' E 010°18'0 0.0
2016-Jul-21 14:30N 43°33' E 010°18'0 0.0
2016-Jul-21 13:33N 43°33' E 010°18'0 0.0
2016-Jul-21 12:28N 43°33' E 010°18'0 0.0
2016-Jul-21 11:32N 43°33' E 010°18'0 0.0
2016-Jul-21 10:32N 43°33' E 010°18'0 0.0
2016-Jul-21 09:33N 43°33' E 010°18'0 0.0
2016-Jul-21 08:34N 43°33' E 010°18'0 0.0
2016-Jul-21 07:31N 43°33' E 010°18'0 0.0
2016-Jul-21 06:32N 43°33' E 010°18'0 0.1
2016-Jul-21 04:33N 43°33' E 010°17'8 7.8
2016-Jul-21 03:33N 43°26' E 010°12'1212.2
2016-Jul-21 02:32N 43°14' E 010°08'1212.5
2016-Jul-21 01:34N 43°03' E 010°03'1313.4
2016-Jul-21 00:33N 42°50' E 009°58'1616.3
2016-Jul-20 23:33N 42°34' E 009°54'3014.8
2016-Jul-20 21:33N 42°10' E 010°19'3316.8
2016-Jul-20 19:34N 41°58' E 011°01'2115.8
2016-Jul-20 18:12N 42°03' E 011°29'1016.1
2016-Jul-20 17:33N 42°06' E 011°42'3 3.2
2016-Jul-20 16:33N 42°06' E 011°47'0 0.0
2016-Jul-20 13:29N 42°06' E 011°47'0 0.0
2016-Jul-20 12:27N 42°06' E 011°47'0 0.0
2016-Jul-20 11:28N 42°06' E 011°47'22 2.2
2016-Jul-20 01:33N 41°45' E 011°56'2217.5
2016-Jul-20 00:17N 41°26' E 012°10'1317.7
2016-Jul-19 23:33N 41°15' E 012°19'1817.6
2016-Jul-19 22:33N 40°60' E 012°31'1817.5
2016-Jul-19 21:33N 40°48' E 012°49'2020.0
2016-Jul-19 20:33N 40°43' E 013°14'2020.1
2016-Jul-19 19:33N 40°38' E 013°40'1919.4
2016-Jul-19 18:34N 40°40' E 014°05'1310.7
2016-Jul-19 17:20N 40°50' E 014°16'0 0.0
2016-Jul-19 16:32N 40°50' E 014°16'0 0.0
2016-Jul-19 15:30N 40°50' E 014°16'0 0.0
2016-Jul-19 08:17N 40°50' E 014°16'0 0.0
2016-Jul-19 07:32N 40°50' E 014°16'0 0.1
2016-Jul-19 04:11N 40°50' E 014°16'5 8.0
2016-Jul-19 03:33N 40°45' E 014°14'1212.4
2016-Jul-19 02:33N 40°38' E 014°01'1312.7
2016-Jul-19 01:33N 40°38' E 013°44'1312.9
2016-Jul-19 00:33N 40°40' E 013°27'1313.0
2016-Jul-18 23:33N 40°42' E 013°10'1313.2
2016-Jul-18 22:33N 40°43' E 012°53'1313.3
2016-Jul-18 21:33N 40°45' E 012°35'1313.5
2016-Jul-18 20:33N 40°48' E 012°18'1413.5
2016-Jul-18 19:34N 40°52' E 012°01'1717.1
2016-Jul-18 18:33N 40°56' E 011°39'1717.0
2016-Jul-18 17:34N 41°00' E 011°17'1616.4
2016-Jul-18 16:33N 41°04' E 010°56'1716.5
2016-Jul-18 15:33N 41°09' E 010°35'1716.7
2016-Jul-18 14:33N 41°13' E 010°13'1717.2
2016-Jul-18 13:34N 41°17' E 009°51'1716.7
2016-Jul-18 12:33N 41°21' E 009°29'8016.0
2016-Jul-18 07:33N 41°17' E 007°43'1916.7
2016-Jul-18 06:23N 41°17' E 007°17'3016.3
2016-Jul-18 04:33N 41°17' E 006°37'1717.0
2016-Jul-18 03:32N 41°16' E 006°14'1717.4
2016-Jul-18 02:33N 41°16' E 005°51'2017.2
2016-Jul-18 01:22N 41°16' E 005°24'1417.0
2016-Jul-18 00:32N 41°16' E 005°05'1717.0
2016-Jul-17 23:33N 41°16' E 004°43'3618.0
2016-Jul-17 21:33N 41°16' E 003°56'1817.8
2016-Jul-17 20:34N 41°16' E 003°32'1717.5
2016-Jul-17 19:33N 41°16' E 003°09'1717.4
2016-Jul-17 18:33N 41°16' E 002°46'1717.5
2016-Jul-17 17:34N 41°15' E 002°22'1110.6
2016-Jul-17 16:33N 41°21' E 002°10'1 0.8
2016-Jul-17 15:13N 41°22' E 002°11'0 0.0
2016-Jul-17 13:29N 41°22' E 002°11'0 0.0
2016-Jul-17 12:27N 41°22' E 002°11'0 0.0
2016-Jul-17 11:30N 41°22' E 002°11'0 0.0
2016-Jul-17 10:31N 41°22' E 002°11'0 0.0
2016-Jul-17 09:23N 41°22' E 002°11'0 0.0
2016-Jul-17 08:29N 41°22' E 002°11'0 0.0
2016-Jul-17 07:30N 41°22' E 002°11'0 0.0
2016-Jul-17 06:28N 41°22' E 002°11'0 0.0
2016-Jul-17 04:32N 41°22' E 002°11'0 0.0
2016-Jul-17 03:30N 41°22' E 002°11'0 0.3
2016-Jul-17 02:33N 41°21' E 002°11'6 6.5
2016-Jul-17 01:33N 41°18' E 002°18'1616.1
2016-Jul-17 00:33N 41°25' E 002°37'1616.4
2016-Jul-16 23:33N 41°34' E 002°56'1615.9
2016-Jul-16 22:32N 41°44' E 003°13'2116.7
2016-Jul-16 21:18N 41°58' E 003°33'1316.9
2016-Jul-16 20:33N 42°07' E 003°44'1717.1
2016-Jul-16 19:33N 42°19' E 004°00'  
Track history (hours):
 
Tides and Currents Weather Stations Pressure Air Temp Water Temp Dewpoint Dewpoint Depression Visibility Wind Speed Wind Dir Waves Ship Positions

Norwegian Epic

Last reported at 2016-Jul-27 09:27 UTC. Time now 2016-Jul-27 09:37 UTC.
Position N 42°06' E 011°47'.

Length 329 m; draft 9.2 m.

Type: Passenger vessel. MMSI: 311018500.

Date/timePositionNaut miles runAvg speedWind from/ knotsBaromVisibWave heightAir tempDewpointWater temp
2016-Jul-27 09:27N 42°06' E 011°47'136 8.9
2016-Jul-26 18:14N 40°39' E 014°05'14 3.7
2016-Jul-26 14:31N 40°50' E 014°16'0 0.0
2016-Jul-26 13:32N 40°50' E 014°16'0 0.0
2016-Jul-26 11:33N 40°50' E 014°16'178 8.5
2016-Jul-25 14:31N 41°11' E 010°21'28217.2
2016-Jul-24 22:09N 41°16' E 004°06'1017.3
2016-Jul-24 21:33N 41°16' E 003°52'1716.9
2016-Jul-24 20:33N 41°16' E 003°30'1716.7
2016-Jul-24 19:33N 41°16' E 003°07'1616.3
2016-Jul-24 18:33N 41°16' E 002°46'1616.1
2016-Jul-24 17:33N 41°16' E 002°24'1211.7
2016-Jul-24 16:33N 41°20' E 002°10'1 1.3
2016-Jul-24 15:27N 41°22' E 002°11'0 0.0
2016-Jul-24 14:22N 41°22' E 002°11'0 0.0
2016-Jul-24 13:23N 41°22' E 002°11'0 0.0
2016-Jul-24 12:11N 41°22' E 002°11'0 0.0
2016-Jul-24 11:24N 41°22' E 002°11'0 0.0
2016-Jul-24 10:31N 41°22' E 002°11'0 0.0
2016-Jul-24 08:26N 41°22' E 002°11'0 0.0
2016-Jul-24 07:15N 41°22' E 002°11'0 0.0
2016-Jul-24 06:30N 41°22' E 002°11'0 0.0
2016-Jul-24 04:29N 41°22' E 002°11'0 0.0
2016-Jul-24 03:23N 41°22' E 002°11'0 0.2
2016-Jul-24 02:33N 41°22' E 002°11'6 6.3
2016-Jul-24 01:33N 41°18' E 002°18'1515.2
2016-Jul-24 00:33N 41°25' E 002°36'1312.9
2016-Jul-23 23:33N 41°31' E 002°51'1312.7
2016-Jul-23 22:33N 41°39' E 003°05'1413.7
2016-Jul-23 21:33N 41°48' E 003°19'11018.3
2016-Jul-23 15:33N 43°06' E 005°02'14 1.2
2016-Jul-23 03:32N 43°18' E 005°13'1111.4
2016-Jul-23 02:33N 43°07' E 005°11'4611.4
2016-Jul-22 22:33N 42°50' E 006°09'1111.3
2016-Jul-22 21:33N 42°46' E 006°23'1111.0
2016-Jul-22 20:33N 42°47' E 006°38'1211.7
2016-Jul-22 19:33N 42°56' E 006°48'1313.1
2016-Jul-22 18:33N 43°07' E 006°59'1312.9
2016-Jul-22 17:33N 43°20' E 006°60'1211.9
2016-Jul-22 16:33N 43°32' E 007°00'1 0.6
2016-Jul-22 15:31N 43°32' E 007°01'1 0.6
2016-Jul-22 14:33N 43°33' E 007°01'1 0.5
2016-Jul-22 13:26N 43°32' E 007°01'0 0.0
2016-Jul-22 12:33N 43°32' E 007°01'1 0.6
2016-Jul-22 11:33N 43°33' E 007°01'1 0.7
2016-Jul-22 10:32N 43°32' E 007°00'0 0.2
2016-Jul-22 09:33N 43°32' E 007°01'0 0.2
2016-Jul-22 08:33N 43°32' E 007°00'0 0.1
2016-Jul-22 07:33N 43°32' E 007°00'0 0.0
2016-Jul-22 05:33N 43°32' E 007°01'5 5.3
2016-Jul-22 04:34N 43°28' E 007°05'1211.9
2016-Jul-22 03:34N 43°28' E 007°22'1212.0
2016-Jul-22 02:34N 43°29' E 007°38'1211.9
2016-Jul-22 01:34N 43°29' E 007°54'1111.1
2016-Jul-22 00:33N 43°29' E 008°10'1312.6
2016-Jul-21 23:34N 43°30' E 008°27'1312.9
2016-Jul-21 22:34N 43°30' E 008°45'1313.1
2016-Jul-21 21:34N 43°30' E 009°03'1313.3
2016-Jul-21 20:34N 43°31' E 009°21'1312.8
2016-Jul-21 19:34N 43°31' E 009°39'1212.3
2016-Jul-21 18:34N 43°31' E 009°56'1413.9
2016-Jul-21 17:33N 43°32' E 010°15'2 2.2
2016-Jul-21 16:31N 43°33' E 010°18'0 0.0
2016-Jul-21 15:32N 43°33' E 010°18'0 0.0
2016-Jul-21 14:30N 43°33' E 010°18'0 0.0
2016-Jul-21 13:33N 43°33' E 010°18'0 0.0
2016-Jul-21 12:28N 43°33' E 010°18'0 0.0
2016-Jul-21 11:32N 43°33' E 010°18'0 0.0
2016-Jul-21 10:32N 43°33' E 010°18'0 0.0
2016-Jul-21 09:33N 43°33' E 010°18'0 0.0
2016-Jul-21 08:34N 43°33' E 010°18'0 0.0
2016-Jul-21 07:31N 43°33' E 010°18'0 0.0
2016-Jul-21 06:32N 43°33' E 010°18'0 0.1
2016-Jul-21 04:33N 43°33' E 010°17'8 7.8
2016-Jul-21 03:33N 43°26' E 010°12'1212.2
2016-Jul-21 02:32N 43°14' E 010°08'1212.5
2016-Jul-21 01:34N 43°03' E 010°03'1313.4
2016-Jul-21 00:33N 42°50' E 009°58'1616.3
2016-Jul-20 23:33N 42°34' E 009°54'3014.8
2016-Jul-20 21:33N 42°10' E 010°19'3316.8
2016-Jul-20 19:34N 41°58' E 011°01'2115.8
2016-Jul-20 18:12N 42°03' E 011°29'1016.1
2016-Jul-20 17:33N 42°06' E 011°42'3 3.2
2016-Jul-20 16:33N 42°06' E 011°47'0 0.0
2016-Jul-20 13:29N 42°06' E 011°47'0 0.0
2016-Jul-20 12:27N 42°06' E 011°47'0 0.0
2016-Jul-20 11:28N 42°06' E 011°47'22 2.2
2016-Jul-20 01:33N 41°45' E 011°56'2217.5
2016-Jul-20 00:17N 41°26' E 012°10'1317.7
2016-Jul-19 23:33N 41°15' E 012°19'1817.6
2016-Jul-19 22:33N 40°60' E 012°31'1817.5
2016-Jul-19 21:33N 40°48' E 012°49'2020.0
2016-Jul-19 20:33N 40°43' E 013°14'2020.1
2016-Jul-19 19:33N 40°38' E 013°40'1919.4
2016-Jul-19 18:34N 40°40' E 014°05'1310.7
2016-Jul-19 17:20N 40°50' E 014°16'0 0.0
2016-Jul-19 16:32N 40°50' E 014°16'0 0.0
2016-Jul-19 15:30N 40°50' E 014°16'0 0.0
2016-Jul-19 08:17N 40°50' E 014°16'0 0.0
2016-Jul-19 07:32N 40°50' E 014°16'0 0.1
2016-Jul-19 04:11N 40°50' E 014°16'5 8.0
2016-Jul-19 03:33N 40°45' E 014°14'1212.4
2016-Jul-19 02:33N 40°38' E 014°01'1312.7
2016-Jul-19 01:33N 40°38' E 013°44'1312.9
2016-Jul-19 00:33N 40°40' E 013°27'1313.0
2016-Jul-18 23:33N 40°42' E 013°10'1313.2
2016-Jul-18 22:33N 40°43' E 012°53'1313.3
2016-Jul-18 21:33N 40°45' E 012°35'1313.5
2016-Jul-18 20:33N 40°48' E 012°18'1413.5
2016-Jul-18 19:34N 40°52' E 012°01'1717.1
2016-Jul-18 18:33N 40°56' E 011°39'1717.0
2016-Jul-18 17:34N 41°00' E 011°17'1616.4
2016-Jul-18 16:33N 41°04' E 010°56'1716.5
2016-Jul-18 15:33N 41°09' E 010°35'1716.7
2016-Jul-18 14:33N 41°13' E 010°13'1717.2
2016-Jul-18 13:34N 41°17' E 009°51'1716.7
2016-Jul-18 12:33N 41°21' E 009°29'8016.0
2016-Jul-18 07:33N 41°17' E 007°43'1916.7
2016-Jul-18 06:23N 41°17' E 007°17'3016.3
2016-Jul-18 04:33N 41°17' E 006°37'1717.0
2016-Jul-18 03:32N 41°16' E 006°14'1717.4
2016-Jul-18 02:33N 41°16' E 005°51'2017.2
2016-Jul-18 01:22N 41°16' E 005°24'1417.0
2016-Jul-18 00:32N 41°16' E 005°05'1717.0
2016-Jul-17 23:33N 41°16' E 004°43'3618.0
2016-Jul-17 21:33N 41°16' E 003°56'1817.8
2016-Jul-17 20:34N 41°16' E 003°32'1717.5
2016-Jul-17 19:33N 41°16' E 003°09'1717.4
2016-Jul-17 18:33N 41°16' E 002°46'1717.5
2016-Jul-17 17:34N 41°15' E 002°22'1110.6
2016-Jul-17 16:33N 41°21' E 002°10'1 0.8
2016-Jul-17 15:13N 41°22' E 002°11'0 0.0
2016-Jul-17 13:29N 41°22' E 002°11'0 0.0
2016-Jul-17 12:27N 41°22' E 002°11'0 0.0
2016-Jul-17 11:30N 41°22' E 002°11'0 0.0
2016-Jul-17 10:31N 41°22' E 002°11'0 0.0
2016-Jul-17 09:23N 41°22' E 002°11'0 0.0
2016-Jul-17 08:29N 41°22' E 002°11'0 0.0
2016-Jul-17 07:30N 41°22' E 002°11'0 0.0
2016-Jul-17 06:28N 41°22' E 002°11'0 0.0
2016-Jul-17 04:32N 41°22' E 002°11'0 0.0
2016-Jul-17 03:30N 41°22' E 002°11'0 0.3
2016-Jul-17 02:33N 41°21' E 002°11'6 6.5
2016-Jul-17 01:33N 41°18' E 002°18'1616.1
2016-Jul-17 00:33N 41°25' E 002°37'1616.4
2016-Jul-16 23:33N 41°34' E 002°56'1615.9
2016-Jul-16 22:32N 41°44' E 003°13'2116.7
2016-Jul-16 21:18N 41°58' E 003°33'1316.9
2016-Jul-16 20:33N 42°07' E 003°44'1717.1
2016-Jul-16 19:33N 42°19' E 004°00'  

Dump ship's entire track history